Time;durP1;ratioP1;P1;durP2;ratioP2;P2;SDS_P1;SDS_P2;PMS_P1;PMS_P2;Temp;Humidity;BMP_temperature;BMP_pressure;BME280_temperature;BME280_humidity;BME280_pressure;Samples;Min_cycle;Max_cycle;Signal;HPM_P1;HPM_P2
2021/04/28 00:01:09;;;;;;;5.07;4.00;;;;;;;8.20;42.73;99583.78;5102469;28;20481;-62
2021/04/28 00:03:35;;;;;;;3.80;2.83;;;;;;;8.08;42.98;99572.44;5103654;28;20864;-63
2021/04/28 00:06:02;;;;;;;6.13;3.83;;;;;;;8.11;43.27;99572.19;5102004;28;20498;-62
2021/04/28 00:08:28;;;;;;;4.80;3.83;;;;;;;8.14;42.54;99580.84;5102521;28;20514;-63
2021/04/28 00:10:55;;;;;;;6.77;3.63;;;;;;;8.05;42.54;99572.72;5101314;28;20478;-63
2021/04/28 00:13:21;;;;;;;6.47;3.40;;;;;;;8.00;42.67;99574.13;5102545;28;20512;-62
2021/04/28 00:15:49;;;;;;;6.03;3.37;;;;;;;7.96;42.52;99568.25;5101785;28;20566;-62
2021/04/28 00:18:18;;;;;;;6.30;4.10;;;;;;;7.96;42.67;99570.91;5102935;28;20796;-63
2021/04/28 00:20:44;;;;;;;9.63;3.60;;;;;;;7.92;42.69;99569.53;5102489;28;20467;-62
2021/04/28 00:23:11;;;;;;;8.63;3.57;;;;;;;7.89;42.56;99567.16;5102381;28;20815;-62
2021/04/28 00:25:38;;;;;;;4.03;3.60;;;;;;;7.86;42.79;99562.09;5102026;28;20497;-62
2021/04/28 00:28:04;;;;;;;4.87;3.40;;;;;;;7.81;43.30;99556.34;5102078;28;20443;-62
2021/04/28 00:30:31;;;;;;;4.07;3.67;;;;;;;7.74;44.09;99553.41;5101923;28;20510;-62
2021/04/28 00:32:57;;;;;;;3.53;3.23;;;;;;;7.75;44.12;99552.44;5101782;28;20454;-62
2021/04/28 00:35:23;;;;;;;5.70;4.20;;;;;;;7.65;43.81;99548.94;5101843;28;20462;-62
2021/04/28 00:37:50;;;;;;;5.60;3.70;;;;;;;7.72;43.68;99542.94;5102071;28;20454;-63
2021/04/28 00:40:19;;;;;;;4.43;4.03;;;;;;;7.69;44.53;99545.00;5101131;28;20479;-63
2021/04/28 00:42:46;;;;;;;5.17;4.17;;;;;;;7.65;44.14;99541.78;5102212;28;20893;-62
2021/04/28 00:45:14;;;;;;;4.90;3.70;;;;;;;7.54;44.54;99541.91;5101362;28;20483;-63
2021/04/28 00:47:40;;;;;;;6.80;3.83;;;;;;;7.41;45.18;99539.50;5102512;28;20905;-63
2021/04/28 00:50:08;;;;;;;5.63;4.20;;;;;;;7.43;45.75;99534.06;5101473;28;20908;-63
2021/04/28 00:52:34;;;;;;;5.20;3.97;;;;;;;7.46;45.98;99525.81;5102510;28;20442;-63
2021/04/28 00:55:03;;;;;;;7.73;4.20;;;;;;;7.40;46.18;99526.38;5101704;28;20519;-62
2021/04/28 00:57:30;;;;;;;7.83;4.43;;;;;;;7.46;46.17;99525.81;5101510;28;20826;-62
2021/04/28 00:59:56;;;;;;;9.27;5.10;;;;;;;7.33;46.40;99521.59;5101188;28;20561;-62
2021/04/28 01:02:22;;;;;;;8.23;5.40;;;;;;;7.34;46.71;99517.09;5081406;28;20571;-62
2021/04/28 01:04:49;;;;;;;5.63;4.47;;;;;;;7.25;46.67;99510.81;5081985;28;20492;-62
2021/04/28 01:07:15;;;;;;;6.60;4.30;;;;;;;7.25;47.37;99510.81;5099353;28;20490;-63
2021/04/28 01:09:42;;;;;;;7.70;5.23;;;;;;;7.25;47.48;99518.78;5100523;28;20454;-65
2021/04/28 01:12:09;;;;;;;7.30;5.07;;;;;;;7.33;47.08;99515.44;5101037;28;20514;-62
2021/04/28 01:14:37;;;;;;;5.27;4.47;;;;;;;7.25;46.85;99515.28;5102164;28;20463;-63
2021/04/28 01:17:05;;;;;;;6.10;5.17;;;;;;;7.12;47.24;99503.09;5101329;28;20577;-62
2021/04/28 01:19:32;;;;;;;8.43;4.57;;;;;;;7.19;47.69;99510.50;5101935;28;20531;-62
2021/04/28 01:21:58;;;;;;;7.90;4.53;;;;;;;7.10;47.90;99507.72;5101217;28;20552;-62
2021/04/28 01:24:25;;;;;;;6.97;5.47;;;;;;;7.06;48.15;99502.78;5101276;28;20466;-62
2021/04/28 01:26:54;;;;;;;5.57;5.07;;;;;;;6.93;48.39;99500.41;5100346;28;20586;-63
2021/04/28 01:29:24;;;;;;;4.87;4.37;;;;;;;6.88;48.62;99507.94;5101489;28;20527;-62
2021/04/28 01:31:50;;;;;;;6.53;4.67;;;;;;;6.85;48.94;99502.88;5063390;28;20982;-62
2021/04/28 01:34:17;;;;;;;6.57;4.70;;;;;;;6.84;48.81;99504.72;5080428;28;20463;-62
2021/04/28 01:36:44;;;;;;;7.90;4.87;;;;;;;6.72;48.67;99503.97;5094291;28;20567;-62
2021/04/28 01:39:12;;;;;;;7.70;5.40;;;;;;;6.82;48.24;99497.84;5100932;28;20475;-62
2021/04/28 01:41:42;;;;;;;8.83;5.90;;;;;;;6.73;48.83;99494.16;5088835;28;20530;-62
2021/04/28 01:44:10;;;;;;;7.60;5.60;;;;;;;6.64;49.29;99494.97;5075701;28;20476;-62
2021/04/28 01:46:37;;;;;;;14.90;6.00;;;;;;;6.63;49.22;99498.59;5092097;28;20550;-62
2021/04/28 01:49:04;;;;;;;9.20;6.10;;;;;;;6.56;49.72;99498.28;5101586;28;20497;-62
2021/04/28 01:51:31;;;;;;;6.90;5.30;;;;;;;6.58;49.86;99496.38;5086576;28;20519;-62
2021/04/28 01:53:58;;;;;;;5.60;5.00;;;;;;;6.50;50.39;99499.66;5081109;28;20475;-62
2021/04/28 01:56:24;;;;;;;7.20;5.70;;;;;;;6.48;50.49;99491.00;5080448;28;20479;-63
2021/04/28 01:58:52;;;;;;;6.80;5.30;;;;;;;6.49;50.89;99487.38;5065594;28;20509;-63
2021/04/28 02:01:19;;;;;;;7.07;5.87;;;;;;;6.58;50.69;99491.88;5089037;28;20470;-62
2021/04/28 02:03:46;;;;;;;9.43;5.37;;;;;;;6.49;50.03;99482.06;5101078;28;20470;-62
2021/04/28 02:06:12;;;;;;;9.20;5.77;;;;;;;6.37;50.36;99486.63;5100354;28;20569;-62
2021/04/28 02:08:38;;;;;;;7.53;5.57;;;;;;;6.37;50.34;99483.97;5097078;28;20483;-62
2021/04/28 02:11:05;;;;;;;7.33;5.80;;;;;;;6.33;51.08;99477.22;5100328;28;20509;-63
2021/04/28 02:13:32;;;;;;;8.20;6.00;;;;;;;6.31;51.22;99475.69;5092420;28;20530;-62
2021/04/28 02:16:00;;;;;;;9.30;5.60;;;;;;;6.34;51.20;99473.59;5103899;28;20498;-62
2021/04/28 02:18:27;;;;;;;7.00;5.33;;;;;;;6.28;51.26;99478.59;5103591;28;21003;-62
2021/04/28 02:20:54;;;;;;;7.43;5.40;;;;;;;6.19;50.85;99469.63;5104231;28;20506;-61
2021/04/28 02:23:20;;;;;;;8.43;6.33;;;;;;;6.10;51.68;99468.59;5093287;28;20479;-63
2021/04/28 02:25:46;;;;;;;7.67;5.70;;;;;;;6.08;51.80;99472.38;5083728;28;20506;-62
2021/04/28 02:28:12;;;;;;;12.63;6.80;;;;;;;6.21;51.79;99467.66;5092681;28;21048;-63
2021/04/28 02:30:38;;;;;;;11.10;5.77;;;;;;;6.18;51.64;99462.63;5102353;28;20511;-62
2021/04/28 02:33:06;;;;;;;9.27;5.73;;;;;;;6.13;51.85;99460.38;5104517;28;20941;-62
2021/04/28 02:35:32;;;;;;;9.63;5.90;;;;;;;6.11;51.54;99458.81;5090750;28;20468;-63
2021/04/28 02:38:02;;;;;;;8.20;5.50;;;;;;;6.08;51.60;99451.13;5064350;28;20548;-63
2021/04/28 02:40:29;;;;;;;7.80;5.67;;;;;;;6.06;51.41;99459.22;5074190;28;20526;-63
2021/04/28 02:42:55;;;;;;;10.87;6.13;;;;;;;6.07;51.74;99452.94;5083550;28;20436;-63
2021/04/28 02:45:22;;;;;;;9.03;6.37;;;;;;;5.96;51.76;99456.50;5084858;28;20455;-62
2021/04/28 02:47:51;;;;;;;5.70;5.07;;;;;;;5.93;51.70;99456.72;5084320;28;20475;-61
2021/04/28 02:50:20;;;;;;;6.00;5.37;;;;;;;5.87;52.33;99454.63;5091073;28;20445;-62
2021/04/28 02:52:47;;;;;;;7.77;6.30;;;;;;;5.96;51.63;99453.84;5104370;28;20908;-62
2021/04/28 02:55:14;;;;;;;8.33;5.70;;;;;;;5.91;51.49;99450.72;5102331;28;20529;-62
2021/04/28 02:57:41;;;;;;;9.03;6.00;;;;;;;5.94;51.84;99452.28;5095601;28;20937;-64
2021/04/28 03:00:09;;;;;;;7.53;5.20;;;;;;;5.92;51.51;99452.41;5070256;28;20472;-63
2021/04/28 03:02:36;;;;;;;7.90;6.07;;;;;;;5.77;52.28;99453.72;5066427;28;20512;-63
2021/04/28 03:05:03;;;;;;;7.70;5.87;;;;;;;5.75;52.20;99451.19;5104239;28;20514;-63
2021/04/28 03:07:30;;;;;;;13.60;5.90;;;;;;;5.88;52.07;99450.97;5103315;28;20494;-63
2021/04/28 03:09:56;;;;;;;6.90;5.70;;;;;;;5.87;52.59;99451.09;5082797;28;20503;-63
2021/04/28 03:12:23;;;;;;;7.10;5.10;;;;;;;5.82;52.44;99452.34;5085056;28;20518;-63
2021/04/28 03:14:49;;;;;;;7.80;6.53;;;;;;;5.91;51.64;99456.03;5104088;28;20530;-63
2021/04/28 03:17:15;;;;;;;7.20;5.30;;;;;;;5.92;51.72;99451.56;5102037;28;20471;-62
2021/04/28 03:19:41;;;;;;;8.40;5.40;;;;;;;5.88;51.70;99450.97;5083524;28;20439;-63
2021/04/28 03:22:07;;;;;;;8.23;5.20;;;;;;;5.86;52.04;99450.25;5084191;28;20570;-63
2021/04/28 03:24:34;;;;;;;7.60;5.80;;;;;;;5.80;51.88;99448.97;5083209;28;20484;-63
2021/04/28 03:27:08;;;;;;;8.40;4.83;;;;;;;5.71;52.09;99451.56;5094394;28;20567;-63
2021/04/28 03:29:35;;;;;;;8.93;5.50;;;;;;;5.77;51.76;99446.59;5093071;28;20524;-63
2021/04/28 03:32:01;;;;;;;11.07;5.63;;;;;;;5.75;52.15;99445.88;5102984;28;20557;-63
2021/04/28 03:34:27;;;;;;;6.80;5.50;;;;;;;5.75;52.02;99448.53;5103840;28;20431;-63
2021/04/28 03:36:53;;;;;;;10.53;6.50;;;;;;;5.69;52.37;99441.06;5102495;28;20561;-63
2021/04/28 03:39:19;;;;;;;7.77;5.60;;;;;;;5.74;52.84;99444.19;5103089;28;20447;-63
2021/04/28 03:41:46;;;;;;;11.73;6.67;;;;;;;5.88;51.95;99447.47;5102486;28;20511;-63
2021/04/28 03:44:12;;;;;;;8.50;5.60;;;;;;;5.79;52.05;99443.81;5103997;28;20440;-63
2021/04/28 03:46:38;;;;;;;10.57;6.03;;;;;;;5.75;52.18;99445.88;5102388;28;20616;-63
2021/04/28 03:49:05;;;;;;;7.47;5.30;;;;;;;5.69;52.47;99445.53;5103604;28;20453;-63
2021/04/28 03:51:31;;;;;;;9.33;5.13;;;;;;;5.61;52.51;99444.38;5102275;28;20514;-62
2021/04/28 03:53:57;;;;;;;6.13;5.50;;;;;;;5.62;52.75;99440.78;5103247;28;20486;-63
2021/04/28 03:56:24;;;;;;;17.50;6.07;;;;;;;5.69;52.02;99441.06;5102763;28;20547;-62
2021/04/28 03:58:52;;;;;;;11.53;5.97;;;;;;;5.59;52.54;99434.84;5102598;28;20511;-62
2021/04/28 04:01:18;;;;;;;6.50;5.33;;;;;;;5.62;52.07;99443.44;5102239;28;20478;-62
2021/04/28 04:03:44;;;;;;;7.53;5.80;;;;;;;5.59;52.33;99442.81;5103028;28;20451;-62
2021/04/28 04:06:10;;;;;;;6.90;5.40;;;;;;;5.73;51.93;99441.66;5102210;28;20820;-61
2021/04/28 04:08:37;;;;;;;6.53;5.70;;;;;;;5.78;51.92;99444.75;5102068;28;20486;-62
2021/04/28 04:11:03;;;;;;;10.93;5.80;;;;;;;5.98;51.62;99440.47;5102477;28;20512;-62
2021/04/28 04:13:29;;;;;;;9.00;5.50;;;;;;;6.25;50.64;99437.25;5102073;28;20489;-62
2021/04/28 04:15:56;;;;;;;7.30;5.47;;;;;;;6.59;49.94;99442.25;5101034;28;20479;-62
2021/04/28 04:18:22;;;;;;;14.70;6.53;;;;;;;6.67;49.27;99442.44;5088767;28;20510;-62
2021/04/28 04:20:48;;;;;;;7.83;5.30;;;;;;;7.41;47.57;99454.41;5079656;28;20478;-63
2021/04/28 04:23:14;;;;;;;18.00;5.90;;;;;;;7.98;45.98;99443.84;5093109;28;20462;-62
2021/04/28 04:25:40;;;;;;;8.20;6.10;;;;;;;8.44;44.80;99444.03;5100941;28;21015;-62
2021/04/28 04:28:07;;;;;;;10.10;5.67;;;;;;;8.96;42.98;99449.66;5100572;28;20559;-63
2021/04/28 04:30:33;;;;;;;6.50;5.17;;;;;;;9.64;41.94;99445.63;5092371;28;20551;-63
2021/04/28 04:33:00;;;;;;;10.57;5.37;;;;;;;10.57;39.91;99449.56;5090155;28;20470;-63
2021/04/28 04:35:26;;;;;;;9.80;4.93;;;;;;;10.93;38.96;99445.69;5091490;28;20497;-62
2021/04/28 04:37:52;;;;;;;7.90;5.20;;;;;;;11.13;38.08;99445.41;5083162;28;20484;-63
2021/04/28 04:40:18;;;;;;;13.77;5.27;;;;;;;11.06;38.42;99447.06;5079922;28;20503;-61
2021/04/28 04:42:45;;;;;;;7.97;4.90;;;;;;;10.02;40.82;99443.56;5079980;28;20527;-61
2021/04/28 04:45:12;;;;;;;9.60;5.30;;;;;;;9.74;41.51;99448.22;5083888;28;20443;-64
2021/04/28 04:47:38;;;;;;;9.10;5.40;;;;;;;9.32;42.58;99447.00;5080361;28;21016;-63
2021/04/28 04:50:08;;;;;;;9.23;4.83;;;;;;;8.79;45.40;99445.13;5089818;28;20442;-64
2021/04/28 04:52:34;;;;;;;11.20;6.43;;;;;;;8.43;45.84;99442.34;5101529;28;21043;-64
2021/04/28 04:55:00;;;;;;;7.97;5.57;;;;;;;8.45;45.94;99443.88;5100503;28;20493;-64
2021/04/28 04:57:27;;;;;;;8.10;5.43;;;;;;;8.50;45.98;99454.09;5091708;28;20539;-64
2021/04/28 04:59:53;;;;;;;5.87;4.97;;;;;;;9.89;42.89;99441.28;5081548;28;20485;-64
2021/04/28 05:02:20;;;;;;;9.30;5.37;;;;;;;11.56;38.79;99447.97;5080208;28;20551;-62
2021/04/28 05:04:46;;;;;;;6.20;4.30;;;;;;;12.39;36.69;99447.75;5091105;28;20508;-63
2021/04/28 05:07:13;;;;;;;8.00;4.60;;;;;;;11.54;37.93;99452.66;5096341;28;20545;-63
2021/04/28 05:09:39;;;;;;;9.13;5.63;;;;;;;10.86;39.59;99443.81;5078894;28;20479;-62
2021/04/28 05:12:05;;;;;;;9.33;4.97;;;;;;;12.03;37.67;99445.47;5080050;28;20551;-62
2021/04/28 05:14:31;;;;;;;8.30;4.70;;;;;;;13.88;34.35;99447.72;5081686;28;21847;-63
2021/04/28 05:16:58;;;;;;;14.37;5.23;;;;;;;15.17;31.60;99448.28;5059842;28;20548;-63
2021/04/28 05:19:24;;;;;;;9.20;4.83;;;;;;;15.69;30.71;99443.59;5059848;28;20486;-63
2021/04/28 05:21:50;;;;;;;8.57;4.87;;;;;;;16.89;28.35;99443.59;5062125;28;20544;-63
2021/04/28 05:24:17;;;;;;;8.30;4.87;;;;;;;18.23;26.34;99442.78;5100602;28;20537;-63
2021/04/28 05:26:43;;;;;;;7.10;4.40;;;;;;;19.37;24.74;99440.50;5097459;28;20537;-63
2021/04/28 05:29:09;;;;;;;8.50;4.07;;;;;;;19.80;24.03;99446.28;5086631;28;20474;-63
2021/04/28 05:31:35;;;;;;;4.87;3.83;;;;;;;19.73;23.83;99447.13;5099767;28;20574;-64
2021/04/28 05:34:01;;;;;;;8.90;4.30;;;;;;;20.62;22.60;99446.16;5099160;28;20447;-64
2021/04/28 05:36:27;;;;;;;7.10;4.43;;;;;;;19.89;23.54;99445.81;5099881;28;20521;-64
2021/04/28 05:38:55;;;;;;;6.10;4.90;;;;;;;20.73;22.55;99444.56;5099617;28;20451;-63
2021/04/28 05:41:22;;;;;;;9.27;5.10;;;;;;;20.84;21.85;99439.22;5098947;28;20463;-63
2021/04/28 05:43:48;;;;;;;7.43;5.00;;;;;;;21.06;21.14;99442.28;5100192;28;20518;-63
2021/04/28 05:46:14;;;;;;;9.00;4.90;;;;;;;21.03;21.24;99439.19;5101165;28;20500;-64
2021/04/28 05:48:41;;;;;;;4.90;3.70;;;;;;;22.44;19.19;99438.69;5104045;28;20458;-63
2021/04/28 05:51:07;;;;;;;6.17;4.43;;;;;;;22.56;19.37;99427.78;5098541;28;20482;-64
2021/04/28 05:53:33;;;;;;;6.70;5.30;;;;;;;22.90;18.79;99431.50;5084138;28;20452;-64
2021/04/28 05:56:02;;;;;;;4.97;4.00;;;;;;;24.14;17.29;99425.53;5102240;28;20491;-67
2021/04/28 05:58:29;;;;;;;7.83;4.47;;;;;;;23.72;17.07;99426.75;5087121;28;20491;-66
2021/04/28 06:00:55;;;;;;;5.63;4.63;;;;;;;24.08;16.82;99435.53;5083697;28;20487;-67
2021/04/28 06:03:22;;;;;;;5.50;4.50;;;;;;;23.41;16.98;99437.13;5097572;28;20450;-68
2021/04/28 06:05:48;;;;;;;4.40;4.00;;;;;;;23.99;16.37;99431.56;5103599;28;20475;-70
2021/04/28 06:08:14;;;;;;;8.43;6.30;;;;;;;22.78;18.06;99430.69;5086085;28;20444;-67
2021/04/28 06:10:41;;;;;;;6.57;5.10;;;;;;;23.86;16.72;99424.53;5086496;28;20584;-67
2021/04/28 06:13:07;;;;;;;5.57;4.63;;;;;;;23.53;17.02;99428.88;5104012;28;20463;-66
2021/04/28 06:15:34;;;;;;;6.97;4.50;;;;;;;24.76;15.62;99427.22;5103179;28;20470;-65
2021/04/28 06:18:00;;;;;;;5.50;4.90;;;;;;;23.06;16.90;99423.66;5102421;28;20890;-66
2021/04/28 06:20:26;;;;;;;9.00;5.30;;;;;;;23.57;16.62;99421.03;5103428;28;20537;-64
2021/04/28 06:22:52;;;;;;;9.73;5.17;;;;;;;22.16;17.95;99421.13;5103897;28;20442;-65
2021/04/28 06:25:19;;;;;;;6.60;4.80;;;;;;;21.81;18.49;99424.69;5102125;28;20455;-66
2021/04/28 06:27:45;;;;;;;6.23;4.37;;;;;;;22.94;17.63;99416.28;5093198;28;20537;-67
2021/04/28 06:30:12;;;;;;;5.53;4.50;;;;;;;23.77;17.12;99423.28;5093598;28;20557;-66
2021/04/28 06:32:39;;;;;;;8.50;5.00;;;;;;;24.14;16.27;99423.59;5078561;28;20522;-66
2021/04/28 06:35:07;;;;;;;8.10;4.80;;;;;;;23.14;17.20;99412.38;5075657;28;20487;-66
2021/04/28 06:37:34;;;;;;;7.73;4.70;;;;;;;23.36;17.88;99408.94;5074231;28;20472;-70
2021/04/28 06:40:00;;;;;;;8.57;4.63;;;;;;;24.30;17.13;99411.00;5082357;28;20463;-67
2021/04/28 06:42:26;;;;;;;6.60;5.40;;;;;;;24.33;16.15;99409.69;5074942;28;20503;-65
2021/04/28 06:44:52;;;;;;;5.37;4.03;;;;;;;24.28;16.93;99404.16;5077138;28;20992;-67
2021/04/28 06:47:18;;;;;;;7.30;5.70;;;;;;;24.81;16.58;99416.34;5080063;28;20812;-66
2021/04/28 06:49:45;;;;;;;11.53;5.57;;;;;;;24.73;16.49;99409.41;5077254;28;20547;-66
2021/04/28 06:52:12;;;;;;;7.47;5.90;;;;;;;24.21;17.90;99405.13;5075345;28;20479;-64
2021/04/28 06:54:38;;;;;;;6.03;5.43;;;;;;;25.08;16.83;99404.63;5078980;28;20448;-65
2021/04/28 06:57:05;;;;;;;6.40;5.20;;;;;;;24.53;16.39;99400.91;5077019;28;20475;-66
2021/04/28 06:59:32;;;;;;;8.53;6.47;;;;;;;23.84;17.05;99396.66;5071027;28;20452;-66
2021/04/28 07:01:58;;;;;;;9.33;6.20;;;;;;;24.48;16.97;99398.97;5074899;28;20556;-66
2021/04/28 07:04:24;;;;;;;9.90;5.53;;;;;;;26.31;15.50;99400.22;5079042;28;20545;-67
2021/04/28 07:06:51;;;;;;;8.50;5.93;;;;;;;24.85;16.29;99390.16;5073620;28;20515;-65
2021/04/28 07:09:17;;;;;;;7.70;6.10;;;;;;;24.75;16.77;99398.22;5078110;28;20467;-66
2021/04/28 07:11:44;;;;;;;12.60;7.20;;;;;;;23.44;17.13;99384.81;5080399;28;20485;-65
2021/04/28 07:14:10;;;;;;;7.73;6.47;;;;;;;22.13;19.53;99394.41;5082308;28;20440;-65
2021/04/28 07:16:36;;;;;;;8.13;5.87;;;;;;;24.81;16.19;99399.94;5075593;28;20482;-64
2021/04/28 07:19:03;;;;;;;7.50;5.10;;;;;;;24.57;16.77;99396.66;5082080;28;20459;-65
2021/04/28 07:21:29;;;;;;;6.27;5.63;;;;;;;22.83;17.58;99395.38;5082114;28;20468;-65
2021/04/28 07:23:56;;;;;;;7.60;5.33;;;;;;;23.18;17.40;99394.44;5080820;28;20495;-66
2021/04/28 07:26:23;;;;;;;8.50;5.60;;;;;;;23.36;17.19;99387.09;5078123;28;20483;-67
2021/04/28 07:28:50;;;;;;;10.37;5.50;;;;;;;23.58;16.96;99393.50;5080790;28;20533;-64
2021/04/28 07:31:17;;;;;;;9.83;6.53;;;;;;;22.30;18.22;99391.81;5074554;28;20477;-65
2021/04/28 07:33:43;;;;;;;6.13;5.50;;;;;;;23.23;18.09;99386.34;5081524;28;20444;-65
2021/04/28 07:36:09;;;;;;;6.90;5.53;;;;;;;23.39;17.19;99378.44;5080417;28;20476;-66
2021/04/28 07:38:36;;;;;;;12.50;5.90;;;;;;;22.83;17.20;99383.63;5080061;28;20456;-66
2021/04/28 07:41:04;;;;;;;6.23;5.27;;;;;;;22.62;18.12;99382.38;5079841;28;20480;-63
2021/04/28 07:43:30;;;;;;;13.07;6.40;;;;;;;23.16;18.12;99379.38;5080992;28;20452;-64
2021/04/28 07:45:56;;;;;;;7.93;6.40;;;;;;;24.31;16.68;99379.88;5068583;28;20476;-63
2021/04/28 07:48:22;;;;;;;7.13;5.97;;;;;;;23.80;16.83;99390.00;5077000;28;20456;-63
2021/04/28 07:50:49;;;;;;;8.70;6.43;;;;;;;23.19;17.57;99381.63;5080375;28;20494;-62
2021/04/28 07:53:15;;;;;;;10.10;5.80;;;;;;;23.98;17.12;99384.31;5083447;28;20832;-64
2021/04/28 07:55:45;;;;;;;8.50;5.70;;;;;;;25.04;16.68;99387.91;5087896;28;20498;-64
2021/04/28 07:58:13;;;;;;;9.63;6.40;;;;;;;24.56;16.32;99381.31;5085669;28;20960;-63
2021/04/28 08:00:39;;;;;;;6.57;5.87;;;;;;;23.06;17.82;99378.13;5078602;28;20481;-63
2021/04/28 08:03:06;;;;;;;7.37;6.20;;;;;;;23.09;18.00;99374.09;5059821;28;20437;-65
2021/04/28 08:05:32;;;;;;;10.83;6.00;;;;;;;24.37;17.10;99372.56;5070009;28;20502;-67
2021/04/28 08:07:59;;;;;;;6.23;5.60;;;;;;;23.95;17.65;99376.63;5077859;28;20841;-66
2021/04/28 08:10:25;;;;;;;6.83;6.10;;;;;;;23.66;17.94;99373.13;5073103;28;20898;-64
2021/04/28 08:12:51;;;;;;;7.40;5.90;;;;;;;23.17;17.62;99389.22;5079819;28;20941;-65
2021/04/28 08:15:18;;;;;;;10.20;6.57;;;;;;;24.41;17.30;99380.03;5080113;28;20447;-66
2021/04/28 08:17:45;;;;;;;8.63;6.20;;;;;;;24.39;17.32;99378.59;5076480;28;20452;-67
2021/04/28 08:20:13;;;;;;;6.47;5.57;;;;;;;24.41;16.91;99380.03;5079692;28;20437;-66
2021/04/28 08:22:39;;;;;;;9.80;7.00;;;;;;;24.72;17.04;99371.41;5080093;28;20857;-67
2021/04/28 08:25:07;;;;;;;7.47;6.70;;;;;;;24.52;16.90;99380.97;5075924;28;20859;-67
2021/04/28 08:27:34;;;;;;;8.30;6.67;;;;;;;25.42;16.38;99377.91;5076051;28;20466;-67
2021/04/28 08:30:00;;;;;;;9.57;6.40;;;;;;;24.22;16.97;99370.47;5081562;28;20484;-69
2021/04/28 08:32:28;;;;;;;8.20;6.33;;;;;;;24.99;16.46;99385.91;5079202;28;20619;-69
2021/04/28 08:34:55;;;;;;;9.23;6.57;;;;;;;23.27;18.28;99370.31;5077585;28;20448;-68
2021/04/28 08:37:21;;;;;;;10.33;6.43;;;;;;;23.57;18.42;99367.28;5080059;28;20488;-68
2021/04/28 08:39:47;;;;;;;9.20;6.63;;;;;;;24.26;17.45;99363.41;5078059;28;20994;-66
2021/04/28 08:42:14;;;;;;;12.93;6.83;;;;;;;23.95;18.29;99368.44;5079367;28;20982;-68
2021/04/28 08:44:40;;;;;;;8.00;6.70;;;;;;;24.64;17.25;99367.22;5080021;28;20444;-67
2021/04/28 08:47:06;;;;;;;9.43;7.10;;;;;;;24.55;17.56;99366.84;5078227;28;20563;-68
2021/04/28 08:49:33;;;;;;;8.17;6.80;;;;;;;24.92;17.01;99368.09;5079651;28;20440;-68
2021/04/28 08:52:00;;;;;;;8.83;7.20;;;;;;;26.21;15.68;99368.09;5072164;28;20502;-68
2021/04/28 08:54:26;;;;;;;11.00;6.77;;;;;;;25.00;17.01;99362.16;5078336;28;20458;-68
2021/04/28 08:56:54;;;;;;;7.07;6.37;;;;;;;24.98;16.59;99370.63;5062439;28;20476;-66
2021/04/28 08:59:21;;;;;;;7.23;6.40;;;;;;;23.06;19.32;99364.50;5080420;28;20443;-68
2021/04/28 09:01:48;;;;;;;10.40;7.23;;;;;;;26.01;16.23;99365.25;5078370;28;20472;-70
2021/04/28 09:04:16;;;;;;;7.87;6.27;;;;;;;25.39;16.10;99366.66;5079889;28;20491;-69
2021/04/28 09:06:43;;;;;;;6.80;6.20;;;;;;;26.63;15.01;99359.00;5076491;28;20521;-70
2021/04/28 09:09:11;;;;;;;8.23;6.70;;;;;;;27.03;14.76;99357.47;5063619;28;20454;-68
2021/04/28 09:11:45;;;;;;;8.20;7.40;;;;;;;26.05;15.78;99364.44;5079222;28;20484;-68
2021/04/28 09:14:14;;;;;;;7.77;6.97;;;;;;;27.73;14.11;99359.75;5075040;28;20442;-66
2021/04/28 09:16:41;;;;;;;8.20;7.20;;;;;;;27.43;14.99;99341.38;5076074;28;20486;-67
2021/04/28 09:19:12;;;;;;;7.93;7.13;;;;;;;27.50;14.80;99349.31;5075816;28;20447;-66
2021/04/28 09:21:50;;;;;;;9.20;7.30;;;;;;;26.09;16.12;99348.28;5067921;28;20490;-66
2021/04/28 09:24:18;;;;;;;8.40;7.00;;;;;;;25.65;16.21;99343.06;5079046;28;20463;-66
2021/04/28 09:26:45;;;;;;;8.33;7.40;;;;;;;24.58;17.00;99338.16;5078875;28;20855;-66
2021/04/28 09:29:16;;;;;;;8.90;8.00;;;;;;;25.81;15.95;99344.81;5085774;28;20491;-68
2021/04/28 09:31:54;;;;;;;10.33;7.03;;;;;;;24.74;17.26;99344.66;5097226;28;20479;-72
2021/04/28 09:34:25;;;;;;;10.00;8.67;;;;;;;23.39;18.68;99330.16;5100319;28;20827;-71
2021/04/28 09:37:01;;;;;;;9.50;8.50;;;;;;;22.45;19.59;99336.03;5082225;28;20467;-67
2021/04/28 09:39:27;;;;;;;8.93;7.40;;;;;;;22.96;19.16;99328.00;5098889;28;20439;-67
2021/04/28 09:41:56;;;;;;;11.67;8.10;;;;;;;23.67;18.47;99337.41;5098861;28;20471;-69
2021/04/28 09:44:27;;;;;;;12.80;8.50;;;;;;;25.12;17.49;99332.75;5091803;28;20954;-68
2021/04/28 09:46:55;;;;;;;10.40;8.50;;;;;;;25.48;16.90;99326.78;5082448;28;20493;-67
2021/04/28 09:49:22;;;;;;;10.20;8.67;;;;;;;24.12;17.95;99322.00;5092440;28;20451;-68
2021/04/28 09:51:54;;;;;;;9.90;8.50;;;;;;;22.54;20.17;99312.78;5085727;28;20539;-67
2021/04/28 09:54:28;;;;;;;9.20;8.00;;;;;;;23.28;18.72;99323.72;5118901;28;20478;-66
2021/04/28 09:56:55;;;;;;;9.33;8.00;;;;;;;24.42;18.11;99309.81;5098519;28;20902;-66
2021/04/28 09:59:22;;;;;;;8.70;7.80;;;;;;;24.97;17.64;99314.25;5098273;28;20447;-68
2021/04/28 10:01:48;;;;;;;10.20;7.83;;;;;;;24.05;17.78;99313.97;5080660;28;20471;-65
2021/04/28 10:04:26;;;;;;;12.40;8.20;;;;;;;23.82;18.24;99308.75;5080358;28;20454;-68
2021/04/28 10:06:52;;;;;;;9.20;8.30;;;;;;;23.79;18.85;99311.94;5079880;28;20902;-68
2021/04/28 10:09:34;;;;;;;9.60;8.33;;;;;;;23.81;18.70;99302.44;5089408;28;20448;-67
2021/04/28 10:12:02;;;;;;;10.53;8.20;;;;;;;22.69;20.18;99299.47;5098846;28;21691;-67
2021/04/28 10:14:29;;;;;;;9.07;8.00;;;;;;;23.99;18.51;99301.34;5098856;28;20427;-66
2021/04/28 10:16:56;;;;;;;8.83;7.80;;;;;;;24.52;18.20;99299.00;5098413;28;20475;-66
2021/04/28 10:19:24;;;;;;;13.33;8.70;;;;;;;24.44;18.65;99302.16;5095613;28;20843;-68
2021/04/28 10:21:51;;;;;;;9.47;8.47;;;;;;;24.89;17.92;99298.31;5092592;28;20475;-67
2021/04/28 10:24:18;;;;;;;11.93;8.63;;;;;;;24.97;17.63;99297.03;5083612;28;20983;-68
2021/04/28 10:26:47;;;;;;;8.90;8.03;;;;;;;25.50;17.25;99297.22;5078628;28;20525;-67
2021/04/28 10:29:14;;;;;;;9.60;8.43;;;;;;;25.85;16.70;99284.84;5084613;28;20501;-67
2021/04/28 10:31:41;;;;;;;10.60;8.50;;;;;;;23.16;18.60;99292.13;5098882;28;20531;-65
2021/04/28 10:34:08;;;;;;;10.03;8.77;;;;;;;24.39;18.62;99289.28;5101821;28;20454;-67
2021/04/28 10:36:35;;;;;;;10.50;9.13;;;;;;;24.12;17.87;99289.22;5101471;28;20823;-66
2021/04/28 10:39:01;;;;;;;9.67;8.67;;;;;;;24.03;18.59;99280.66;5102011;28;20470;-66
2021/04/28 10:41:36;;;;;;;10.87;8.63;;;;;;;24.67;18.40;99281.13;5102487;28;20504;-67
2021/04/28 10:44:04;;;;;;;12.70;8.47;;;;;;;25.28;17.49;99281.75;5100918;28;20451;-67
2021/04/28 10:46:30;;;;;;;9.40;8.37;;;;;;;24.89;17.81;99279.19;5102415;28;20486;-67
2021/04/28 10:48:57;;;;;;;8.60;7.80;;;;;;;25.00;17.73;99270.00;5102279;28;20455;-66
2021/04/28 10:51:36;;;;;;;10.33;8.50;;;;;;;25.31;17.46;99273.03;5100833;28;20487;-67
2021/04/28 10:54:24;;;;;;;10.53;9.43;;;;;;;22.84;18.81;99262.66;5090055;28;20459;-67
2021/04/28 10:57:02;;;;;;;27.23;11.67;;;;;;;24.58;18.47;99262.50;5101687;28;20478;-66
2021/04/28 10:59:34;;;;;;;10.13;8.57;;;;;;;24.80;17.11;99262.41;5101232;28;20464;-63
2021/04/28 11:02:08;;;;;;;9.57;8.57;;;;;;;25.00;17.08;99258.25;5101266;28;20467;-64
2021/04/28 11:04:34;;;;;;;9.37;8.20;;;;;;;23.89;18.14;99249.34;5103044;28;20435;-64
2021/04/28 11:07:01;;;;;;;10.33;8.67;;;;;;;24.15;17.65;99257.88;5100656;28;20629;-65
2021/04/28 11:09:27;;;;;;;12.40;8.67;;;;;;;-145.52;100.00;65322.94;5100217;28;20533;-64
2021/04/28 11:12:01;;;;;;;9.97;9.00;;;;;;;-145.52;100.00;65322.94;5101719;28;21030;-64
2021/04/28 11:14:50;;;;;;;9.10;8.30;;;;;;;-145.52;100.00;65322.94;5101325;28;20431;-65
2021/04/28 11:17:27;;;;;;;9.23;7.70;;;;;;;25.95;16.08;99243.88;5100606;28;20466;-65
2021/04/28 11:19:55;;;;;;;9.73;8.80;;;;;;;25.55;16.71;99229.69;5101643;28;20439;-65
2021/04/28 11:22:28;;;;;;;8.33;7.57;;;;;;;25.42;17.13;99237.53;5099396;28;20499;-64
2021/04/28 11:25:16;;;;;;;12.40;8.77;;;;;;;25.25;16.84;99219.34;5101341;28;21066;-65
2021/04/28 11:27:56;;;;;;;12.30;9.10;;;;;;;23.44;19.84;99228.50;5101210;28;20467;-65
2021/04/28 11:30:31;;;;;;;10.73;9.63;;;;;;;20.82;21.11;99226.72;5100340;28;20971;-64
2021/04/28 11:33:17;;;;;;;11.30;9.27;;;;;;;21.64;20.85;99216.97;5095189;28;20486;-64
2021/04/28 11:35:45;;;;;;;11.43;8.93;;;;;;;23.90;18.14;99218.22;5064802;28;20941;-64